EGAA Airport Information

Runway Information
Runway 07 Length 9121 ft width 148 ft
Elevation 206 ft Threshold ft Heading 65
Runway 25 Length 9121 ft Width 148 ft
Elevation 268 ft Threshold ft Heading 245
Runway 17 Length 6204 ft width 148 ft
Elevation 206 ft Threshold 525 ft Heading 162
Runway 35 Length 6204 ft Width 148 ft
Elevation 258 ft Threshold 502 ft Heading 342
Airport Frequencies
Type APP Name APP Frequency 128.5 MHZ
Type ATIS Name ATIS Frequency 128.2 MHZ
Type GND Name GND Frequency 121.75 MHZ
Type OPS Name OPS Frequency 26.48 MHZ
Type RDR Name DIRECTOR Frequency 120.9 MHZ
Type TWR Name TWR Frequency 118.3 MHZ
Type ILS 25 Name Frequency 109.9 MHZ
Type ILS 17 Name Frequency 110.9 MHZ
Airport Navaids
Type VOR-DME Name Belfast Frequency 117200 KHZ
Type NDB Name Aldergrove Frequency 332 KHZ
Airport Weather Information & NOTAM
ADDS - METARS form results

(1732 UTC 05 December 2022)
Data provider http://aviationweather.gov/metar/data/
 
METAR text: EGAA 051720Z AUTO 08007KT 9999 OVC036 06/03 Q1029
Conditions at: EGAA (BELFAST/ALDERGRO, GB) observed 1720 UTC 05 December 2022
Temperature: 6.0°C (43°F)
Dewpoint: 3.0°C (37°F) [RH = 81%]
Pressure (altimeter): 30.38 inches Hg (1029.0 mb)
Winds: from the E (80 degrees) at 8 MPH (7 knots; 3.6 m/s)
Visibility: 6 or more miles (10+ km)
Ceiling: 3600 feet AGL
Clouds: overcast cloud deck at 3600 feet AGL
Weather: no significant weather observed at this time

METAR text: EGAA 051650Z AUTO 08008KT 9999 BKN028 OVC034 06/03 Q1029
Conditions at: EGAA (BELFAST/ALDERGRO, GB) observed 1650 UTC 05 December 2022
Temperature: 6.0°C (43°F)
Dewpoint: 3.0°C (37°F) [RH = 81%]
Pressure (altimeter): 30.38 inches Hg (1029.0 mb)
Winds: from the E (80 degrees) at 9 MPH (8 knots; 4.1 m/s)
Visibility: 6 or more miles (10+ km)
Ceiling: 2800 feet AGL
Clouds: broken clouds at 2800 feet AGL
overcast cloud deck at 3400 feet AGL
Weather: no significant weather observed at this time

Forecast for: EGAA (BELFAST/ALDERGRO, GB)
Text: TAF EGAA 051656Z 0518/0618 07010KT 9999 BKN028
Forecast period: 1800 UTC 05 December 2022 to 0500 UTC 06 December 2022
Forecast type: FROM: standard forecast or significant change
Winds: from the ENE (70 degrees) at 12 MPH (10 knots; 5.1 m/s)
Visibility: 6 or more miles (10+ km)
Ceiling: 2800 feet AGL
Clouds: broken clouds at 2800 feet AGL
Weather: no significant weather forecast for this period
Text: BECMG 0605/0608 01005KT
Forecast period: 0500 to 1800 UTC 06 December 2022
Forecast type: BECOMING: Conditions expected to become as follows by 0800 UTC 06 December 2022
Winds: from the N (10 degrees) at 6 MPH (5 knots; 2.6 m/s)
Visibility: 6 or more miles (10+ km)
Ceiling: 2800 feet AGL
Clouds: broken clouds at 2800 feet AGL
Weather: no significant weather forecast for this period